Time;durP1;ratioP1;P1;durP2;ratioP2;P2;SDS_P1;SDS_P2;PMS_P1;PMS_P2;Temp;Humidity;BMP_temperature;BMP_pressure;BME280_temperature;BME280_humidity;BME280_pressure;Samples;Min_cycle;Max_cycle;Signal;HPM_P1;HPM_P2
2022/03/13 00:01:21;;;;;;;9.00;7.27;;;;;;;;;;5095826;28;20207;-76
2022/03/13 00:03:50;;;;;;;12.30;7.87;;;;;;;;;;5095979;28;20195;-77
2022/03/13 00:06:24;;;;;;;9.53;7.20;;;;;;;;;;5095156;28;20676;-76
2022/03/13 00:08:57;;;;;;;10.03;7.50;;;;;;;;;;5095009;28;20201;-76
2022/03/13 00:11:27;;;;;;;11.00;7.03;;;;;;;;;;5095586;28;20263;-76
2022/03/13 00:13:57;;;;;;;11.10;7.80;;;;;;;;;;5095706;28;20205;-76
2022/03/13 00:16:25;;;;;;;9.07;6.77;;;;;;;;;;5095797;28;20237;-76
2022/03/13 00:18:55;;;;;;;9.23;6.87;;;;;;;;;;5095455;28;20602;-77
2022/03/13 00:21:24;;;;;;;9.43;7.77;;;;;;;;;;5095564;28;20202;-77
2022/03/13 00:23:52;;;;;;;8.47;7.43;;;;;;;;;;5095520;28;20247;-77
2022/03/13 00:26:22;;;;;;;9.33;7.23;;;;;;;;;;5095322;28;20226;-76
2022/03/13 00:28:50;;;;;;;8.53;7.20;;;;;;;;;;5095420;28;20210;-77
2022/03/13 00:31:19;;;;;;;9.97;7.17;;;;;;;;;;5095542;28;20226;-76
2022/03/13 00:33:47;;;;;;;9.93;7.67;;;;;;;;;;5094794;28;20225;-76
2022/03/13 00:36:16;;;;;;;8.97;7.70;;;;;;;;;;5095057;28;20270;-76
2022/03/13 00:38:44;;;;;;;8.63;7.13;;;;;;;;;;5095382;28;20680;-76
2022/03/13 00:41:12;;;;;;;9.40;7.40;;;;;;;;;;5083566;28;20258;-76
2022/03/13 00:43:42;;;;;;;8.60;6.73;;;;;;;;;;5074642;28;20204;-76
2022/03/13 00:46:14;;;;;;;8.60;6.90;;;;;;;;;;5074695;28;20673;-76
2022/03/13 00:48:42;;;;;;;10.17;7.67;;;;;;;;;;5084116;28;20202;-76
2022/03/13 00:51:11;;;;;;;9.23;7.17;;;;;;;;;;5095105;28;20248;-76
2022/03/13 00:53:40;;;;;;;8.20;6.73;;;;;;;;;;5094990;28;20255;-77
2022/03/13 00:56:10;;;;;;;9.03;7.30;;;;;;;;;;5094742;28;20275;-77
2022/03/13 00:58:40;;;;;;;11.27;7.37;;;;;;;;;;5095466;28;20190;-77
2022/03/13 01:01:12;;;;;;;9.17;6.87;;;;;;;;;;5095045;28;20209;-77
2022/03/13 01:03:53;;;;;;;9.63;7.27;;;;;;;;;;5094516;28;20209;-76
2022/03/13 01:06:22;;;;;;;7.57;6.63;;;;;;;;;;5094683;28;20676;-77
2022/03/13 01:08:51;;;;;;;10.93;7.50;;;;;;;;;;5094452;28;20206;-76
2022/03/13 01:11:20;;;;;;;8.80;7.40;;;;;;;;;;5094204;28;20230;-76
2022/03/13 01:13:49;;;;;;;10.63;7.20;;;;;;;;;;5094239;28;20205;-76
2022/03/13 01:16:20;;;;;;;10.50;7.53;;;;;;;;;;5094476;28;20232;-76
2022/03/13 01:18:50;;;;;;;10.03;7.43;;;;;;;;;;5093868;28;20652;-76
2022/03/13 01:21:18;;;;;;;10.40;8.20;;;;;;;;;;5093381;28;20255;-76
2022/03/13 01:24:00;;;;;;;9.73;7.77;;;;;;;;;;5093874;28;20606;-76
2022/03/13 01:26:36;;;;;;;10.53;7.87;;;;;;;;;;5093804;28;20221;-76
2022/03/13 01:29:06;;;;;;;10.27;8.00;;;;;;;;;;5094315;28;20205;-76
2022/03/13 01:31:37;;;;;;;10.30;7.73;;;;;;;;;;5093739;28;20745;-76
2022/03/13 01:34:07;;;;;;;10.53;7.47;;;;;;;;;;5094238;28;20201;-76
2022/03/13 01:36:36;;;;;;;9.30;7.97;;;;;;;;;;5094010;28;20275;-76
2022/03/13 01:39:06;;;;;;;9.57;8.03;;;;;;;;;;5093994;28;20198;-76
2022/03/13 01:41:35;;;;;;;12.23;8.10;;;;;;;;;;5079189;28;20205;-76
2022/03/13 01:44:05;;;;;;;8.50;7.40;;;;;;;;;;5073837;28;20229;-76
2022/03/13 01:46:33;;;;;;;8.80;7.67;;;;;;;;;;5076978;28;20220;-76
2022/03/13 01:49:05;;;;;;;13.13;8.20;;;;;;;;;;5093674;28;20257;-77
2022/03/13 01:51:34;;;;;;;8.60;7.70;;;;;;;;;;5093809;28;20691;-77
2022/03/13 01:54:04;;;;;;;11.00;8.33;;;;;;;;;;5094016;28;20622;-77
2022/03/13 01:56:33;;;;;;;10.00;7.33;;;;;;;;;;5093926;28;20699;-77
2022/03/13 01:59:01;;;;;;;10.13;7.97;;;;;;;;;;5094214;28;20194;-77
2022/03/13 02:01:30;;;;;;;9.10;7.63;;;;;;;;;;5093833;28;20239;-77
2022/03/13 02:03:58;;;;;;;10.10;7.60;;;;;;;;;;5093048;28;20194;-76
2022/03/13 02:06:29;;;;;;;9.70;7.53;;;;;;;;;;5092892;28;20224;-76
2022/03/13 02:08:57;;;;;;;9.37;7.80;;;;;;;;;;5094019;28;20213;-77
2022/03/13 02:11:28;;;;;;;11.27;8.40;;;;;;;;;;5094202;28;20230;-77
2022/03/13 02:13:56;;;;;;;9.37;7.70;;;;;;;;;;5093089;28;20625;-77
2022/03/13 02:16:26;;;;;;;9.17;7.70;;;;;;;;;;5093745;28;20692;-77
2022/03/13 02:18:55;;;;;;;9.57;7.43;;;;;;;;;;5093569;28;20201;-76
2022/03/13 02:21:25;;;;;;;9.77;7.80;;;;;;;;;;5093421;28;20198;-77
2022/03/13 02:23:56;;;;;;;9.70;8.00;;;;;;;;;;5093864;28;20205;-76
2022/03/13 02:26:25;;;;;;;9.87;8.20;;;;;;;;;;5093590;28;20629;-76
2022/03/13 02:28:55;;;;;;;10.40;8.33;;;;;;;;;;5093629;28;20208;-76
2022/03/13 02:31:27;;;;;;;10.23;8.03;;;;;;;;;;5093384;28;20237;-77
2022/03/13 02:33:56;;;;;;;12.03;8.43;;;;;;;;;;5097165;28;20212;-77
2022/03/13 02:36:30;;;;;;;9.33;8.13;;;;;;;;;;5097337;28;20253;-77
2022/03/13 02:39:01;;;;;;;9.37;7.60;;;;;;;;;;5097606;28;20207;-77
2022/03/13 02:41:29;;;;;;;12.63;7.67;;;;;;;;;;5083104;28;20653;-77
2022/03/13 02:43:58;;;;;;;13.17;8.53;;;;;;;;;;5077254;28;20206;-76
2022/03/13 02:46:44;;;;;;;12.10;8.07;;;;;;;;;;5077188;28;20229;-77
2022/03/13 02:49:12;;;;;;;12.70;8.07;;;;;;;;;;5080458;28;20195;-77
2022/03/13 02:51:41;;;;;;;8.70;7.30;;;;;;;;;;5097430;28;20223;-76
2022/03/13 02:54:11;;;;;;;11.03;8.40;;;;;;;;;;5097052;28;20204;-76
2022/03/13 02:56:39;;;;;;;8.67;7.50;;;;;;;;;;5096938;28;20219;-77
2022/03/13 02:59:08;;;;;;;10.90;8.50;;;;;;;;;;5097104;28;20206;-77
2022/03/13 03:01:38;;;;;;;10.37;7.97;;;;;;;;;;5096699;28;20192;-76
2022/03/13 03:04:07;;;;;;;12.57;8.20;;;;;;;;;;5097119;28;20230;-76
2022/03/13 03:06:38;;;;;;;11.33;8.10;;;;;;;;;;5097078;28;20228;-76
2022/03/13 03:09:06;;;;;;;11.33;8.30;;;;;;;;;;5096967;28;20228;-76
2022/03/13 03:11:36;;;;;;;11.67;8.83;;;;;;;;;;5082423;28;20219;-76
2022/03/13 03:14:05;;;;;;;9.13;7.73;;;;;;;;;;5076864;28;20257;-77
2022/03/13 03:16:33;;;;;;;10.23;7.70;;;;;;;;;;5088122;28;20339;-76
2022/03/13 03:19:02;;;;;;;10.67;8.60;;;;;;;;;;5096924;28;20281;-76
2022/03/13 03:21:30;;;;;;;10.43;8.63;;;;;;;;;;5096664;28;20207;-76
2022/03/13 03:23:59;;;;;;;11.43;7.73;;;;;;;;;;5096450;28;20269;-77
2022/03/13 03:26:27;;;;;;;10.20;7.73;;;;;;;;;;5096775;28;20599;-76
2022/03/13 03:28:57;;;;;;;11.03;7.90;;;;;;;;;;5096808;28;20207;-76
2022/03/13 03:31:25;;;;;;;9.07;7.87;;;;;;;;;;5096086;28;20691;-76
2022/03/13 03:33:54;;;;;;;9.27;8.07;;;;;;;;;;5096285;28;20220;-77
2022/03/13 03:36:22;;;;;;;11.47;8.00;;;;;;;;;;5096622;28;20644;-76
2022/03/13 03:38:50;;;;;;;9.27;7.70;;;;;;;;;;5096323;28;20600;-76
2022/03/13 03:41:19;;;;;;;10.80;7.93;;;;;;;;;;5083597;28;20659;-77
2022/03/13 03:43:48;;;;;;;10.20;8.37;;;;;;;;;;5074623;28;20206;-76
2022/03/13 03:46:17;;;;;;;8.43;7.03;;;;;;;;;;5094515;28;20215;-76
2022/03/13 03:48:46;;;;;;;11.20;8.57;;;;;;;;;;5096958;28;20216;-76
2022/03/13 03:51:14;;;;;;;9.17;7.80;;;;;;;;;;5095586;28;20204;-77
2022/03/13 03:53:43;;;;;;;11.63;7.90;;;;;;;;;;5095567;28;20256;-76
2022/03/13 03:56:11;;;;;;;10.70;8.50;;;;;;;;;;5095727;28;20225;-77
2022/03/13 03:58:39;;;;;;;10.73;8.07;;;;;;;;;;5095476;28;20211;-76
2022/03/13 04:01:08;;;;;;;10.57;7.87;;;;;;;;;;5095957;28;20604;-76
2022/03/13 04:03:38;;;;;;;11.50;8.83;;;;;;;;;;5095653;28;20260;-76
2022/03/13 04:06:06;;;;;;;9.93;8.00;;;;;;;;;;5096047;28;20186;-76
2022/03/13 04:08:35;;;;;;;10.67;7.97;;;;;;;;;;5095650;28;20718;-76
2022/03/13 04:11:03;;;;;;;10.80;8.40;;;;;;;;;;5095624;28;20237;-76
2022/03/13 04:13:35;;;;;;;11.57;8.50;;;;;;;;;;5095144;28;20220;-77
2022/03/13 04:16:04;;;;;;;11.00;8.53;;;;;;;;;;5095397;28;20666;-76
2022/03/13 04:18:32;;;;;;;11.20;8.50;;;;;;;;;;5095760;28;20208;-76
2022/03/13 04:21:03;;;;;;;10.43;8.57;;;;;;;;;;5095522;28;20207;-76
2022/03/13 04:23:33;;;;;;;12.63;8.77;;;;;;;;;;5095754;28;20184;-76
2022/03/13 04:26:01;;;;;;;11.03;8.60;;;;;;;;;;5095047;28;20563;-76
2022/03/13 04:28:30;;;;;;;9.43;7.67;;;;;;;;;;5094665;28;20222;-76
2022/03/13 04:31:00;;;;;;;10.77;8.13;;;;;;;;;;5094986;28;20381;-76
2022/03/13 04:33:33;;;;;;;10.13;7.87;;;;;;;;;;5095076;28;20215;-76
2022/03/13 04:36:05;;;;;;;11.63;8.00;;;;;;;;;;5095242;28;20259;-76
2022/03/13 04:38:33;;;;;;;9.17;7.87;;;;;;;;;;5094786;28;20206;-76
2022/03/13 04:41:02;;;;;;;15.80;9.27;;;;;;;;;;5083446;28;20252;-76
2022/03/13 04:43:30;;;;;;;10.57;8.57;;;;;;;;;;5089293;28;20207;-76
2022/03/13 04:45:58;;;;;;;9.57;8.13;;;;;;;;;;5094177;28;20204;-76
2022/03/13 04:48:27;;;;;;;9.77;8.20;;;;;;;;;;5094919;28;20254;-76
2022/03/13 04:50:55;;;;;;;9.70;7.93;;;;;;;;;;5094833;28;20202;-76
2022/03/13 04:53:25;;;;;;;9.93;8.03;;;;;;;;;;5094931;28;20229;-76
2022/03/13 04:55:54;;;;;;;13.53;8.87;;;;;;;;;;5094514;28;20201;-76
2022/03/13 04:58:23;;;;;;;11.73;8.20;;;;;;;;;;5094264;28;20199;-76
2022/03/13 05:00:51;;;;;;;10.10;8.17;;;;;;;;;;5094785;28;20285;-76
2022/03/13 05:03:20;;;;;;;10.50;8.23;;;;;;;;;;5094922;28;20222;-76
2022/03/13 05:05:48;;;;;;;10.87;8.50;;;;;;;;;;5094574;28;20241;-76
2022/03/13 05:08:17;;;;;;;11.47;7.73;;;;;;;;;;5094602;28;20259;-76
2022/03/13 05:10:48;;;;;;;10.40;8.63;;;;;;;;;;5088340;28;20211;-76
2022/03/13 05:13:17;;;;;;;9.77;7.97;;;;;;;;;;5094046;28;20299;-76
2022/03/13 05:15:47;;;;;;;10.77;8.00;;;;;;;;;;5094566;28;20653;-76
2022/03/13 05:18:15;;;;;;;12.33;8.37;;;;;;;;;;5094702;28;20726;-76
2022/03/13 05:20:44;;;;;;;11.13;8.30;;;;;;;;;;5094829;28;20604;-76
2022/03/13 05:23:13;;;;;;;13.43;8.20;;;;;;;;;;5094373;28;20676;-75
2022/03/13 05:25:41;;;;;;;11.93;8.07;;;;;;;;;;5094313;28;20206;-76
2022/03/13 05:28:16;;;;;;;11.17;7.50;;;;;;;;;;5094079;28;20200;-76
2022/03/13 05:30:46;;;;;;;12.83;8.47;;;;;;;;;;5093799;28;20655;-76
2022/03/13 05:33:14;;;;;;;9.87;7.80;;;;;;;;;;5094307;28;20339;-76
2022/03/13 05:35:43;;;;;;;10.27;8.37;;;;;;;;;;5094120;28;20248;-76
2022/03/13 05:38:11;;;;;;;12.97;8.40;;;;;;;;;;5094188;28;20221;-76
2022/03/13 05:40:40;;;;;;;11.30;7.80;;;;;;;;;;5093603;28;20687;-77
2022/03/13 05:43:09;;;;;;;10.13;8.37;;;;;;;;;;5094048;28;20255;-76
2022/03/13 05:45:41;;;;;;;12.33;8.47;;;;;;;;;;5093870;28;20265;-76
2022/03/13 05:48:10;;;;;;;12.67;8.43;;;;;;;;;;5093690;28;20266;-76
2022/03/13 05:50:39;;;;;;;10.80;8.20;;;;;;;;;;5093847;28;20557;-76
2022/03/13 05:53:07;;;;;;;9.57;8.40;;;;;;;;;;5094166;28;20218;-76
2022/03/13 05:55:36;;;;;;;11.07;8.50;;;;;;;;;;5093679;28;20202;-76
2022/03/13 05:58:04;;;;;;;11.87;8.67;;;;;;;;;;5093422;28;20231;-76
2022/03/13 06:00:33;;;;;;;10.93;8.87;;;;;;;;;;5093720;28;20259;-76
2022/03/13 06:03:03;;;;;;;11.80;9.17;;;;;;;;;;5093600;28;20229;-76
2022/03/13 06:05:35;;;;;;;10.93;8.50;;;;;;;;;;5093464;28;20194;-76
2022/03/13 06:08:04;;;;;;;11.37;8.43;;;;;;;;;;5093030;28;20224;-76
2022/03/13 06:10:32;;;;;;;11.27;9.00;;;;;;;;;;5092613;28;20212;-76
2022/03/13 06:13:01;;;;;;;10.57;8.30;;;;;;;;;;5077462;28;20224;-76
2022/03/13 06:15:31;;;;;;;11.13;8.10;;;;;;;;;;5078510;28;20208;-76
2022/03/13 06:18:01;;;;;;;10.37;7.93;;;;;;;;;;5093111;28;20234;-76
2022/03/13 06:20:30;;;;;;;9.83;7.27;;;;;;;;;;5093185;28;20551;-76
2022/03/13 06:22:59;;;;;;;9.60;7.47;;;;;;;;;;5093629;28;20207;-76
2022/03/13 06:25:28;;;;;;;9.77;7.47;;;;;;;;;;5092159;28;20201;-76
2022/03/13 06:27:56;;;;;;;11.10;7.87;;;;;;;;;;5092335;28;20226;-76
2022/03/13 06:30:25;;;;;;;9.60;7.80;;;;;;;;;;5093069;28;20206;-75
2022/03/13 06:32:55;;;;;;;12.87;8.50;;;;;;;;;;5093383;28;20218;-75
2022/03/13 06:35:25;;;;;;;12.70;8.17;;;;;;;;;;5093065;28;20211;-75
2022/03/13 06:37:55;;;;;;;8.90;7.50;;;;;;;;;;5084911;28;20720;-75
2022/03/13 06:40:24;;;;;;;9.70;7.83;;;;;;;;;;5092404;28;20211;-76
2022/03/13 06:42:55;;;;;;;10.30;8.00;;;;;;;;;;5093346;28;20204;-76
2022/03/13 06:45:24;;;;;;;11.97;7.97;;;;;;;;;;5091960;28;20191;-76
2022/03/13 06:47:53;;;;;;;10.77;7.30;;;;;;;;;;5080447;28;20233;-76
2022/03/13 06:50:23;;;;;;;9.67;7.67;;;;;;;;;;5080654;28;20604;-76
2022/03/13 06:52:52;;;;;;;10.37;7.97;;;;;;;;;;5093004;28;20208;-76
2022/03/13 06:55:22;;;;;;;8.60;7.60;;;;;;;;;;5092603;28;20205;-75
2022/03/13 06:57:51;;;;;;;10.23;7.90;;;;;;;;;;5093476;28;20253;-76
2022/03/13 07:00:20;;;;;;;11.70;7.67;;;;;;;;;;5092842;28;20237;-76
2022/03/13 07:02:49;;;;;;;10.93;8.07;;;;;;;;;;5092921;28;20253;-76
2022/03/13 07:05:20;;;;;;;12.90;7.80;;;;;;;;;;5091024;28;20659;-75
2022/03/13 07:07:48;;;;;;;10.53;8.20;;;;;;;;;;5079962;28;20579;-76
2022/03/13 07:10:17;;;;;;;10.30;7.47;;;;;;;;;;5083549;28;20213;-75
2022/03/13 07:12:48;;;;;;;9.97;7.20;;;;;;;;;;5091643;28;20673;-76
2022/03/13 07:15:18;;;;;;;10.17;7.27;;;;;;;;;;5084672;28;20213;-76
2022/03/13 07:17:46;;;;;;;13.37;7.77;;;;;;;;;;5079460;28;20224;-76
2022/03/13 07:20:15;;;;;;;9.50;7.67;;;;;;;;;;5078557;28;20210;-76
2022/03/13 07:22:45;;;;;;;9.47;7.63;;;;;;;;;;5096718;28;20267;-76
2022/03/13 07:25:14;;;;;;;10.47;8.27;;;;;;;;;;5095992;28;20606;-76
2022/03/13 07:27:42;;;;;;;10.00;7.50;;;;;;;;;;5095972;28;20310;-76
2022/03/13 07:30:13;;;;;;;12.40;7.50;;;;;;;;;;5095076;28;20265;-76
2022/03/13 07:32:42;;;;;;;8.53;7.20;;;;;;;;;;5085749;28;20219;-76
2022/03/13 07:35:11;;;;;;;10.67;7.40;;;;;;;;;;5084137;28;20232;-76
2022/03/13 07:37:40;;;;;;;10.77;7.70;;;;;;;;;;5095469;28;20233;-76
2022/03/13 07:40:09;;;;;;;8.33;7.03;;;;;;;;;;5095834;28;20213;-76
2022/03/13 07:42:38;;;;;;;10.93;7.23;;;;;;;;;;5088753;28;20220;-76
2022/03/13 07:45:07;;;;;;;9.07;7.50;;;;;;;;;;5095464;28;20196;-76
2022/03/13 07:47:36;;;;;;;10.93;7.33;;;;;;;;;;5096492;28;20286;-76
2022/03/13 07:50:05;;;;;;;10.33;7.93;;;;;;;;;;5094612;28;20201;-76
2022/03/13 07:52:34;;;;;;;11.27;7.70;;;;;;;;;;5095358;28;20254;-75
2022/03/13 07:55:03;;;;;;;10.43;7.80;;;;;;;;;;5095484;28;20223;-76
2022/03/13 07:57:31;;;;;;;11.03;7.83;;;;;;;;;;5093774;28;20635;-75
2022/03/13 07:59:59;;;;;;;10.67;8.23;;;;;;;;;;5075173;28;20217;-76
2022/03/13 08:02:28;;;;;;;10.40;7.43;;;;;;;;;;5080845;28;20196;-76
2022/03/13 08:04:58;;;;;;;11.67;7.47;;;;;;;;;;5095954;28;20254;-76
2022/03/13 08:07:27;;;;;;;11.07;8.07;;;;;;;;;;5095216;28;20243;-75
2022/03/13 08:09:58;;;;;;;9.27;7.73;;;;;;;;;;5091009;28;20221;-75
2022/03/13 08:12:26;;;;;;;9.90;7.27;;;;;;;;;;5095065;28;20189;-75
2022/03/13 08:14:54;;;;;;;9.23;7.50;;;;;;;;;;5094992;28;20233;-76
2022/03/13 08:17:23;;;;;;;9.23;7.73;;;;;;;;;;5095135;28;20271;-75
2022/03/13 08:19:54;;;;;;;10.63;7.63;;;;;;;;;;5095810;28;20220;-76
2022/03/13 08:22:24;;;;;;;8.47;7.57;;;;;;;;;;5095071;28;20201;-76
2022/03/13 08:24:52;;;;;;;9.67;7.67;;;;;;;;;;5095757;28;20197;-76
2022/03/13 08:27:20;;;;;;;9.63;7.97;;;;;;;;;;5093991;28;20634;-75
2022/03/13 08:29:49;;;;;;;9.80;7.67;;;;;;;;;;5094937;28;20255;-76
2022/03/13 08:32:17;;;;;;;8.90;7.60;;;;;;;;;;5084987;28;20202;-76
2022/03/13 08:34:48;;;;;;;9.47;7.30;;;;;;;;;;5094576;28;20304;-76
2022/03/13 08:37:17;;;;;;;11.67;7.10;;;;;;;;;;5094683;28;20228;-76
2022/03/13 08:39:47;;;;;;;8.77;7.50;;;;;;;;;;5093164;28;20210;-76
2022/03/13 08:42:15;;;;;;;9.23;7.73;;;;;;;;;;5085149;28;20664;-76
2022/03/13 08:44:44;;;;;;;8.60;7.57;;;;;;;;;;5094910;28;20209;-77
2022/03/13 08:47:12;;;;;;;8.80;7.53;;;;;;;;;;5094523;28;20732;-77
2022/03/13 08:49:41;;;;;;;10.83;7.87;;;;;;;;;;5094276;28;20198;-76
2022/03/13 08:52:09;;;;;;;9.87;7.53;;;;;;;;;;5094641;28;20206;-76
2022/03/13 08:54:37;;;;;;;7.67;6.87;;;;;;;;;;5094697;28;20219;-76
2022/03/13 08:57:07;;;;;;;8.33;7.33;;;;;;;;;;5093942;28;20218;-77
2022/03/13 08:59:36;;;;;;;8.63;7.03;;;;;;;;;;5093983;28;20194;-76
2022/03/13 09:02:06;;;;;;;9.07;7.63;;;;;;;;;;5094638;28;20608;-77
2022/03/13 09:04:34;;;;;;;8.87;6.97;;;;;;;;;;5091553;28;20202;-77
2022/03/13 09:07:02;;;;;;;7.83;6.70;;;;;;;;;;5090527;28;20274;-76
2022/03/13 09:09:31;;;;;;;7.83;6.80;;;;;;;;;;5092856;28;20684;-77
2022/03/13 09:12:06;;;;;;;10.33;6.50;;;;;;;;;;5085174;28;20202;-77
2022/03/13 09:14:37;;;;;;;8.87;7.07;;;;;;;;;;5093924;28;20754;-77
2022/03/13 09:17:05;;;;;;;7.73;6.70;;;;;;;;;;5090683;28;20354;-77
2022/03/13 09:19:34;;;;;;;7.77;6.50;;;;;;;;;;5095159;28;20275;-77
2022/03/13 09:22:02;;;;;;;8.33;6.33;;;;;;;;;;5093774;28;20334;-76
2022/03/13 09:24:31;;;;;;;7.33;6.60;;;;;;;;;;5094279;28;20198;-75
2022/03/13 09:26:59;;;;;;;7.60;6.37;;;;;;;;;;5093355;28;20217;-76
2022/03/13 09:29:28;;;;;;;8.50;6.50;;;;;;;;;;5093758;28;20660;-77
2022/03/13 09:31:58;;;;;;;7.40;6.23;;;;;;;;;;5094227;28;20202;-76
2022/03/13 09:34:26;;;;;;;9.43;6.47;;;;;;;;;;5093585;28;20212;-77
2022/03/13 09:36:55;;;;;;;6.73;6.00;;;;;;;;;;5093877;28;20221;-76
2022/03/13 09:39:25;;;;;;;7.57;6.77;;;;;;;;;;5090254;28;20264;-76
2022/03/13 09:41:54;;;;;;;8.30;6.40;;;;;;;;;;5090065;28;20213;-77
2022/03/13 09:44:24;;;;;;;7.50;6.17;;;;;;;;;;5085170;28;20263;-77
2022/03/13 09:46:52;;;;;;;7.43;5.87;;;;;;;;;;5093641;28;20222;-76
2022/03/13 09:49:23;;;;;;;8.03;6.07;;;;;;;;;;5094330;28;20206;-77
2022/03/13 09:51:52;;;;;;;7.17;6.10;;;;;;;;;;5093762;28;20209;-76
2022/03/13 09:54:20;;;;;;;6.77;6.07;;;;;;;;;;5095048;28;20699;-77
2022/03/13 09:56:49;;;;;;;7.40;5.80;;;;;;;;;;5096217;28;20218;-78
2022/03/13 09:59:17;;;;;;;8.67;6.17;;;;;;;;;;5094430;28;20193;-77
2022/03/13 10:01:45;;;;;;;7.90;6.57;;;;;;;;;;5090789;28;20672;-77
2022/03/13 10:04:15;;;;;;;7.70;6.07;;;;;;;;;;5083539;28;20217;-78
2022/03/13 10:07:07;;;;;;;7.03;5.90;;;;;;;;;;5095502;28;20214;-77
2022/03/13 10:09:37;;;;;;;7.07;6.13;;;;;;;;;;5097633;28;20217;-77
2022/03/13 10:12:09;;;;;;;6.20;5.60;;;;;;;;;;5092673;28;20202;-78
2022/03/13 10:14:39;;;;;;;7.37;6.07;;;;;;;;;;5097347;28;20241;-77
2022/03/13 10:17:15;;;;;;;5.83;5.23;;;;;;;;;;5101227;28;20222;-78
2022/03/13 10:19:44;;;;;;;6.87;5.60;;;;;;;;;;5094882;28;20189;-77
2022/03/13 10:22:13;;;;;;;6.50;5.80;;;;;;;;;;5101838;28;20206;-77
2022/03/13 10:24:42;;;;;;;6.47;5.70;;;;;;;;;;5100002;28;20201;-78
2022/03/13 10:27:15;;;;;;;7.07;5.90;;;;;;;;;;5092437;28;20222;-77
2022/03/13 10:29:45;;;;;;;6.30;5.80;;;;;;;;;;5095808;28;20190;-77
2022/03/13 10:32:14;;;;;;;6.80;5.73;;;;;;;;;;5099569;28;20206;-77
2022/03/13 10:34:43;;;;;;;8.50;6.27;;;;;;;;;;5094807;28;20228;-77
2022/03/13 10:37:11;;;;;;;6.63;5.60;;;;;;;;;;5091359;28;20217;-78
2022/03/13 10:39:41;;;;;;;6.60;5.90;;;;;;;;;;5102908;28;20206;-78
2022/03/13 10:42:10;;;;;;;5.93;5.27;;;;;;;;;;5097167;28;20228;-77
2022/03/13 10:44:52;;;;;;;6.70;5.73;;;;;;;;;;5103054;28;20259;-78
2022/03/13 10:47:26;;;;;;;7.30;5.90;;;;;;;;;;5101383;28;20256;-78
2022/03/13 10:49:54;;;;;;;6.37;5.50;;;;;;;;;;5101006;28;20210;-78
2022/03/13 10:52:25;;;;;;;6.30;5.70;;;;;;;;;;5098550;28;20202;-78
2022/03/13 10:54:55;;;;;;;6.00;5.40;;;;;;;;;;5102294;28;20239;-77
2022/03/13 10:57:23;;;;;;;6.80;5.43;;;;;;;;;;5088029;28;20287;-78
2022/03/13 11:00:08;;;;;;;6.30;5.70;;;;;;;;;;5100702;28;20213;-77
2022/03/13 11:02:36;;;;;;;6.10;5.50;;;;;;;;;;5100067;28;20219;-79
2022/03/13 11:05:06;;;;;;;6.10;5.30;;;;;;;;;;5100122;28;20645;-78
2022/03/13 11:07:34;;;;;;;6.17;5.57;;;;;;;;;;5097228;28;20578;-78
2022/03/13 11:10:06;;;;;;;6.93;6.23;;;;;;;;;;5098428;28;20214;-78
2022/03/13 11:12:35;;;;;;;6.20;4.97;;;;;;;;;;5097165;28;20206;-78
2022/03/13 11:15:04;;;;;;;6.30;5.70;;;;;;;;;;5096590;28;20213;-78
2022/03/13 11:17:34;;;;;;;6.93;5.97;;;;;;;;;;5095668;28;20287;-80
2022/03/13 11:20:04;;;;;;;6.27;5.40;;;;;;;;;;5103380;28;20293;-79
2022/03/13 11:22:33;;;;;;;6.23;5.43;;;;;;;;;;5100816;28;20198;-78
2022/03/13 11:25:02;;;;;;;6.50;5.90;;;;;;;;;;5094396;28;20536;-78
2022/03/13 11:27:33;;;;;;;6.00;5.40;;;;;;;;;;5102650;28;20209;-78
2022/03/13 11:30:02;;;;;;;6.50;5.60;;;;;;;;;;5104184;28;20229;-78
2022/03/13 11:32:34;;;;;;;6.17;5.67;;;;;;;;;;5105931;28;20676;-79
2022/03/13 11:35:20;;;;;;;6.37;5.77;;;;;;;;;;5105199;28;20197;-78
2022/03/13 11:37:50;;;;;;;6.00;5.40;;;;;;;;;;5102756;28;20225;-79
2022/03/13 11:40:20;;;;;;;6.50;5.90;;;;;;;;;;5096972;28;20213;-78
2022/03/13 11:42:50;;;;;;;7.23;6.10;;;;;;;;;;5084603;28;20202;-79
2022/03/13 11:45:32;;;;;;;8.13;5.80;;;;;;;;;;5086918;28;20601;-77
2022/03/13 11:48:18;;;;;;;6.53;5.90;;;;;;;;;;5088036;28;20243;-78
2022/03/13 11:50:47;;;;;;;6.07;5.50;;;;;;;;;;5104406;28;20190;-79
2022/03/13 11:53:16;;;;;;;6.53;5.70;;;;;;;;;;5109380;28;20209;-79
2022/03/13 11:56:06;;;;;;;6.87;5.97;;;;;;;;;;5108819;28;20210;-80
2022/03/13 11:58:43;;;;;;;7.30;6.03;;;;;;;;;;5106896;28;20200;-79
2022/03/13 12:01:15;;;;;;;6.43;5.73;;;;;;;;;;5104616;28;20190;-79
2022/03/13 12:03:58;;;;;;;6.20;5.50;;;;;;;;;;5106377;28;20210;-78
2022/03/13 12:06:48;;;;;;;6.60;6.00;;;;;;;;;;5107253;28;20213;-79
2022/03/13 12:09:17;;;;;;;6.90;6.20;;;;;;;;;;5101938;28;20283;-78
2022/03/13 12:11:46;;;;;;;7.80;5.70;;;;;;;;;;5104626;28;20259;-78
2022/03/13 12:14:17;;;;;;;6.97;5.90;;;;;;;;;;5089678;28;20198;-78
2022/03/13 12:16:46;;;;;;;7.47;6.00;;;;;;;;;;5092049;28;20225;-79
2022/03/13 12:19:18;;;;;;;6.33;5.67;;;;;;;;;;5100112;28;20202;-78
2022/03/13 12:21:47;;;;;;;6.10;5.50;;;;;;;;;;5104423;28;20227;-79
2022/03/13 12:24:20;;;;;;;8.05;6.00;;;;;;;;;;5102356;28;20204;-78
2022/03/13 12:26:50;;;;;;;7.05;6.32;;;;;;;;;;5105292;28;20210;-78
2022/03/13 12:29:20;;;;;;;6.03;5.45;;;;;;;;;;5098279;28;20221;-78
2022/03/13 12:31:49;;;;;;;6.70;6.00;;;;;;;;;;5104058;28;20210;-77
2022/03/13 12:34:24;;;;;;;6.40;5.80;;;;;;;;;;5101323;28;20271;-77
2022/03/13 12:36:53;;;;;;;6.30;5.70;;;;;;;;;;5099885;28;20224;-79
2022/03/13 12:39:22;;;;;;;5.68;5.18;;;;;;;;;;5103085;28;20198;-79
2022/03/13 12:41:56;;;;;;;6.35;5.75;;;;;;;;;;5089056;28;20218;-77
2022/03/13 12:44:27;;;;;;;6.60;6.00;;;;;;;;;;5097221;28;20208;-79
2022/03/13 12:46:56;;;;;;;6.82;6.13;;;;;;;;;;5105751;28;20213;-78
2022/03/13 12:49:28;;;;;;;9.30;5.82;;;;;;;;;;5102542;28;20209;-78
2022/03/13 12:51:57;;;;;;;6.75;6.03;;;;;;;;;;5105855;28;20201;-78
2022/03/13 12:54:27;;;;;;;7.45;6.40;;;;;;;;;;4746430;28;9999897;-78
2022/03/13 12:56:56;;;;;;;7.75;6.43;;;;;;;;;;5102683;28;20708;-78
2022/03/13 12:59:28;;;;;;;7.15;6.07;;;;;;;;;;5098971;28;20209;-78
2022/03/13 13:02:06;;;;;;;6.82;6.13;;;;;;;;;;5091774;28;20264;-79
2022/03/13 13:04:35;;;;;;;6.70;6.10;;;;;;;;;;5103118;28;20205;-79
2022/03/13 13:07:05;;;;;;;6.97;6.28;;;;;;;;;;5084426;28;20214;-78
2022/03/13 13:09:34;;;;;;;7.45;6.75;;;;;;;;;;5098949;28;20227;-78
2022/03/13 13:12:02;;;;;;;6.82;6.22;;;;;;;;;;5094355;28;20206;-79
2022/03/13 13:14:33;;;;;;;19.23;17.17;;;;;;;;;;5099785;28;20216;-79
2022/03/13 13:17:06;;;;;;;9.07;6.47;;;;;;;;;;5102558;28;20243;-80
2022/03/13 13:19:38;;;;;;;6.95;6.28;;;;;;;;;;5104699;28;20212;-83
2022/03/13 13:22:07;;;;;;;7.03;6.43;;;;;;;;;;5105955;28;20637;-80
2022/03/13 13:24:36;;;;;;;8.93;8.05;;;;;;;;;;5105734;28;20223;-82
2022/03/13 13:27:06;;;;;;;8.05;7.25;;;;;;;;;;5103453;28;20238;-81
2022/03/13 13:29:37;;;;;;;6.88;6.18;;;;;;;;;;5104885;28;20213;-81
2022/03/13 13:32:18;;;;;;;7.60;6.50;;;;;;;;;;5104182;28;20637;-79
2022/03/13 13:35:01;;;;;;;7.18;6.47;;;;;;;;;;5106036;28;20254;-80
2022/03/13 13:37:30;;;;;;;7.22;6.63;;;;;;;;;;5102959;28;20222;-80
2022/03/13 13:40:07;;;;;;;7.35;6.50;;;;;;;;;;5099361;28;20204;-80
2022/03/13 13:42:36;;;;;;;7.15;6.45;;;;;;;;;;5106869;28;20215;-80
2022/03/13 13:45:27;;;;;;;7.40;6.70;;;;;;;;;;5106891;28;20205;-80
2022/03/13 13:47:56;;;;;;;9.15;6.90;;;;;;;;;;5104878;28;20233;-82
2022/03/13 13:50:25;;;;;;;7.20;6.43;;;;;;;;;;5108530;28;20198;-81
2022/03/13 13:53:02;;;;;;;7.18;6.32;;;;;;;;;;5095878;28;20561;-80
2022/03/13 13:55:35;;;;;;;7.60;6.50;;;;;;;;;;5107480;28;20193;-81
2022/03/13 13:58:17;;;;;;;6.80;6.20;;;;;;;;;;5108901;28;20224;-81
2022/03/13 14:00:47;;;;;;;8.43;6.82;;;;;;;;;;5108879;28;20205;-81
2022/03/13 14:03:16;;;;;;;7.33;6.17;;;;;;;;;;5106633;28;20208;-80
2022/03/13 14:05:44;;;;;;;7.70;6.90;;;;;;;;;;5103616;28;20201;-80
2022/03/13 14:08:22;;;;;;;7.00;6.40;;;;;;;;;;5097504;28;20245;-81
2022/03/13 14:10:51;;;;;;;6.97;6.33;;;;;;;;;;5103577;28;20232;-80
2022/03/13 14:13:19;;;;;;;8.63;6.60;;;;;;;;;;5108408;28;20262;-79
2022/03/13 14:15:49;;;;;;;8.30;6.63;;;;;;;;;;5101084;28;20260;-81
2022/03/13 14:18:18;;;;;;;7.27;6.57;;;;;;;;;;5094915;28;20221;-80
2022/03/13 14:20:46;;;;;;;7.07;6.33;;;;;;;;;;5098079;28;20578;-80
2022/03/13 14:23:15;;;;;;;7.60;6.90;;;;;;;;;;5096041;28;20214;-79
2022/03/13 14:25:43;;;;;;;8.07;7.27;;;;;;;;;;5094226;28;20210;-81
2022/03/13 14:28:16;;;;;;;8.50;6.77;;;;;;;;;;5098159;28;20232;-80
2022/03/13 14:30:44;;;;;;;8.07;6.57;;;;;;;;;;5102873;28;20202;-81
2022/03/13 14:33:14;;;;;;;7.50;6.70;;;;;;;;;;5102005;28;20225;-80
2022/03/13 14:35:42;;;;;;;8.13;6.87;;;;;;;;;;5102037;28;20194;-80
2022/03/13 14:38:11;;;;;;;7.37;6.67;;;;;;;;;;5095867;28;20222;-82
2022/03/13 14:40:41;;;;;;;8.20;6.83;;;;;;;;;;5101471;28;20200;-81
2022/03/13 14:43:11;;;;;;;7.40;6.70;;;;;;;;;;5105987;28;20292;-81
2022/03/13 14:45:40;;;;;;;8.20;6.90;;;;;;;;;;5108041;28;20201;-80
2022/03/13 14:48:08;;;;;;;8.20;7.00;;;;;;;;;;5101473;28;20230;-80
2022/03/13 14:50:48;;;;;;;9.80;6.80;;;;;;;;;;5104732;28;20252;-79
2022/03/13 14:53:19;;;;;;;7.87;7.07;;;;;;;;;;5102220;28;20653;-81
2022/03/13 14:55:48;;;;;;;7.47;6.67;;;;;;;;;;5102392;28;20204;-79